sensor_id;sensor_type;location;lat;lon;timestamp;temperature;humidity
22383;DHT22;11359;45.802;13.530;2022-08-19T00:00:27;25.40;60.30
22383;DHT22;11359;45.802;13.530;2022-08-19T00:02:53;25.30;60.20
22383;DHT22;11359;45.802;13.530;2022-08-19T00:05:20;25.30;60.20
22383;DHT22;11359;45.802;13.530;2022-08-19T00:07:46;25.30;60.30
22383;DHT22;11359;45.802;13.530;2022-08-19T00:10:15;25.30;60.50
22383;DHT22;11359;45.802;13.530;2022-08-19T00:12:41;25.30;60.60
22383;DHT22;11359;45.802;13.530;2022-08-19T00:15:10;25.30;60.70
22383;DHT22;11359;45.802;13.530;2022-08-19T00:17:42;25.20;60.60
22383;DHT22;11359;45.802;13.530;2022-08-19T00:20:10;25.20;60.60
22383;DHT22;11359;45.802;13.530;2022-08-19T00:22:37;25.20;60.70
22383;DHT22;11359;45.802;13.530;2022-08-19T00:25:05;25.20;60.80
22383;DHT22;11359;45.802;13.530;2022-08-19T00:27:31;25.10;60.90
22383;DHT22;11359;45.802;13.530;2022-08-19T00:29:56;25.10;61.10
22383;DHT22;11359;45.802;13.530;2022-08-19T00:32:24;25.10;61.30
22383;DHT22;11359;45.802;13.530;2022-08-19T00:34:51;25.00;61.40
22383;DHT22;11359;45.802;13.530;2022-08-19T00:37:20;25.00;61.50
22383;DHT22;11359;45.802;13.530;2022-08-19T00:39:49;25.00;61.60
22383;DHT22;11359;45.802;13.530;2022-08-19T00:42:17;25.00;61.70
22383;DHT22;11359;45.802;13.530;2022-08-19T00:44:43;25.00;61.80
22383;DHT22;11359;45.802;13.530;2022-08-19T00:47:09;24.90;61.80
22383;DHT22;11359;45.802;13.530;2022-08-19T00:49:40;24.90;61.90
22383;DHT22;11359;45.802;13.530;2022-08-19T00:52:12;24.90;62.00
22383;DHT22;11359;45.802;13.530;2022-08-19T00:54:40;24.90;62.10
22383;DHT22;11359;45.802;13.530;2022-08-19T00:57:09;24.90;62.10
22383;DHT22;11359;45.802;13.530;2022-08-19T00:59:37;24.90;62.30
22383;DHT22;11359;45.802;13.530;2022-08-19T01:02:04;24.80;62.50
22383;DHT22;11359;45.802;13.530;2022-08-19T01:04:30;24.80;62.60
22383;DHT22;11359;45.802;13.530;2022-08-19T01:06:56;24.80;62.70
22383;DHT22;11359;45.802;13.530;2022-08-19T01:09:22;24.80;62.80
22383;DHT22;11359;45.802;13.530;2022-08-19T01:11:48;24.80;62.80
22383;DHT22;11359;45.802;13.530;2022-08-19T01:14:15;24.80;62.80
22383;DHT22;11359;45.802;13.530;2022-08-19T01:16:43;24.80;62.90
22383;DHT22;11359;45.802;13.530;2022-08-19T01:19:33;24.80;63.00
22383;DHT22;11359;45.802;13.530;2022-08-19T01:22:08;24.80;63.10
22383;DHT22;11359;45.802;13.530;2022-08-19T01:24:36;24.80;63.00
22383;DHT22;11359;45.802;13.530;2022-08-19T01:27:06;24.80;63.00
22383;DHT22;11359;45.802;13.530;2022-08-19T01:29:33;24.80;63.10
22383;DHT22;11359;45.802;13.530;2022-08-19T01:32:02;24.80;63.10
22383;DHT22;11359;45.802;13.530;2022-08-19T01:34:28;24.80;63.20
22383;DHT22;11359;45.802;13.530;2022-08-19T01:36:54;24.80;63.20
22383;DHT22;11359;45.802;13.530;2022-08-19T01:39:23;24.80;63.30
22383;DHT22;11359;45.802;13.530;2022-08-19T01:41:49;24.80;63.30
22383;DHT22;11359;45.802;13.530;2022-08-19T01:44:16;24.80;63.70
22383;DHT22;11359;45.802;13.530;2022-08-19T01:46:43;24.80;63.20
22383;DHT22;11359;45.802;13.530;2022-08-19T01:49:10;24.80;63.20
22383;DHT22;11359;45.802;13.530;2022-08-19T01:51:36;24.80;63.10
22383;DHT22;11359;45.802;13.530;2022-08-19T01:54:03;24.80;63.20
22383;DHT22;11359;45.802;13.530;2022-08-19T01:56:28;24.70;63.20
22383;DHT22;11359;45.802;13.530;2022-08-19T01:59:08;24.70;63.40
22383;DHT22;11359;45.802;13.530;2022-08-19T02:01:35;24.70;63.50
22383;DHT22;11359;45.802;13.530;2022-08-19T02:04:01;24.60;63.60
22383;DHT22;11359;45.802;13.530;2022-08-19T02:06:27;24.60;63.70
22383;DHT22;11359;45.802;13.530;2022-08-19T02:08:54;24.60;63.90
22383;DHT22;11359;45.802;13.530;2022-08-19T02:11:24;24.60;63.90
22383;DHT22;11359;45.802;13.530;2022-08-19T02:13:55;24.60;64.00
22383;DHT22;11359;45.802;13.530;2022-08-19T02:16:21;24.60;64.20
22383;DHT22;11359;45.802;13.530;2022-08-19T02:18:47;24.50;64.10
22383;DHT22;11359;45.802;13.530;2022-08-19T02:21:17;24.50;64.20
22383;DHT22;11359;45.802;13.530;2022-08-19T02:23:44;24.50;64.30
22383;DHT22;11359;45.802;13.530;2022-08-19T02:26:10;24.50;64.30
22383;DHT22;11359;45.802;13.530;2022-08-19T02:28:37;24.40;64.30
22383;DHT22;11359;45.802;13.530;2022-08-19T02:31:07;24.40;64.40
22383;DHT22;11359;45.802;13.530;2022-08-19T02:33:34;24.40;64.40
22383;DHT22;11359;45.802;13.530;2022-08-19T02:36:04;24.40;64.40
22383;DHT22;11359;45.802;13.530;2022-08-19T02:38:30;24.30;64.40
22383;DHT22;11359;45.802;13.530;2022-08-19T02:41:02;24.30;64.50
22383;DHT22;11359;45.802;13.530;2022-08-19T02:43:30;24.30;64.50
22383;DHT22;11359;45.802;13.530;2022-08-19T02:45:55;24.20;64.60
22383;DHT22;11359;45.802;13.530;2022-08-19T02:48:23;24.20;64.60
22383;DHT22;11359;45.802;13.530;2022-08-19T02:50:50;24.20;64.70
22383;DHT22;11359;45.802;13.530;2022-08-19T02:53:23;24.20;64.80
22383;DHT22;11359;45.802;13.530;2022-08-19T02:55:49;24.20;64.80
22383;DHT22;11359;45.802;13.530;2022-08-19T02:58:16;24.20;64.80
22383;DHT22;11359;45.802;13.530;2022-08-19T03:00:50;24.10;64.90
22383;DHT22;11359;45.802;13.530;2022-08-19T03:03:16;24.10;64.90
22383;DHT22;11359;45.802;13.530;2022-08-19T03:05:43;24.10;64.90
22383;DHT22;11359;45.802;13.530;2022-08-19T03:08:11;24.10;65.00
22383;DHT22;11359;45.802;13.530;2022-08-19T03:10:45;24.10;65.10
22383;DHT22;11359;45.802;13.530;2022-08-19T03:13:14;24.10;65.10
22383;DHT22;11359;45.802;13.530;2022-08-19T03:15:42;24.10;65.20
22383;DHT22;11359;45.802;13.530;2022-08-19T03:18:08;24.10;65.20
22383;DHT22;11359;45.802;13.530;2022-08-19T03:20:34;24.10;65.30
22383;DHT22;11359;45.802;13.530;2022-08-19T03:23:04;24.10;65.30
22383;DHT22;11359;45.802;13.530;2022-08-19T03:25:30;24.10;65.30
22383;DHT22;11359;45.802;13.530;2022-08-19T03:27:56;24.00;65.30
22383;DHT22;11359;45.802;13.530;2022-08-19T03:30:21;24.00;65.30
22383;DHT22;11359;45.802;13.530;2022-08-19T03:32:47;24.10;65.40
22383;DHT22;11359;45.802;13.530;2022-08-19T03:35:13;24.00;65.30
22383;DHT22;11359;45.802;13.530;2022-08-19T03:37:38;24.00;65.30
22383;DHT22;11359;45.802;13.530;2022-08-19T03:40:04;24.10;65.40
22383;DHT22;11359;45.802;13.530;2022-08-19T03:42:30;24.00;65.30
22383;DHT22;11359;45.802;13.530;2022-08-19T03:44:56;24.00;65.30
22383;DHT22;11359;45.802;13.530;2022-08-19T03:47:23;24.00;65.30
22383;DHT22;11359;45.802;13.530;2022-08-19T03:49:49;24.00;65.30
22383;DHT22;11359;45.802;13.530;2022-08-19T03:52:14;24.00;65.50
22383;DHT22;11359;45.802;13.530;2022-08-19T03:54:41;24.00;65.50
22383;DHT22;11359;45.802;13.530;2022-08-19T03:57:07;24.00;65.50
22383;DHT22;11359;45.802;13.530;2022-08-19T03:59:36;23.90;65.50
22383;DHT22;11359;45.802;13.530;2022-08-19T04:02:06;23.90;65.60
22383;DHT22;11359;45.802;13.530;2022-08-19T04:04:35;23.90;65.70
22383;DHT22;11359;45.802;13.530;2022-08-19T04:07:01;23.90;65.80
22383;DHT22;11359;45.802;13.530;2022-08-19T04:09:27;23.90;65.80
22383;DHT22;11359;45.802;13.530;2022-08-19T04:11:54;23.90;65.80
22383;DHT22;11359;45.802;13.530;2022-08-19T04:14:24;23.80;65.90
22383;DHT22;11359;45.802;13.530;2022-08-19T04:16:50;23.80;66.00
22383;DHT22;11359;45.802;13.530;2022-08-19T04:19:17;23.80;66.10
22383;DHT22;11359;45.802;13.530;2022-08-19T04:21:46;23.80;66.10
22383;DHT22;11359;45.802;13.530;2022-08-19T04:24:13;23.80;66.10
22383;DHT22;11359;45.802;13.530;2022-08-19T04:26:39;23.70;66.10
22383;DHT22;11359;45.802;13.530;2022-08-19T04:29:08;23.70;66.10
22383;DHT22;11359;45.802;13.530;2022-08-19T04:31:34;23.70;66.10
22383;DHT22;11359;45.802;13.530;2022-08-19T04:34:04;23.70;66.10
22383;DHT22;11359;45.802;13.530;2022-08-19T04:36:32;23.70;66.10
22383;DHT22;11359;45.802;13.530;2022-08-19T04:39:02;23.70;66.00
22383;DHT22;11359;45.802;13.530;2022-08-19T04:41:28;23.70;66.00
22383;DHT22;11359;45.802;13.530;2022-08-19T04:44:13;23.70;66.00
22383;DHT22;11359;45.802;13.530;2022-08-19T04:46:39;23.70;65.90
22383;DHT22;11359;45.802;13.530;2022-08-19T04:49:07;23.70;65.80
22383;DHT22;11359;45.802;13.530;2022-08-19T04:51:34;23.60;65.70
22383;DHT22;11359;45.802;13.530;2022-08-19T04:54:01;23.60;65.70
22383;DHT22;11359;45.802;13.530;2022-08-19T04:56:27;23.60;65.60
22383;DHT22;11359;45.802;13.530;2022-08-19T04:58:54;23.50;65.60
22383;DHT22;11359;45.802;13.530;2022-08-19T05:01:24;23.50;65.50
22383;DHT22;11359;45.802;13.530;2022-08-19T05:03:50;23.50;65.50
22383;DHT22;11359;45.802;13.530;2022-08-19T05:06:18;23.50;65.50
22383;DHT22;11359;45.802;13.530;2022-08-19T05:08:45;23.50;65.30
22383;DHT22;11359;45.802;13.530;2022-08-19T05:11:18;23.50;65.30
22383;DHT22;11359;45.802;13.530;2022-08-19T05:13:46;23.50;65.30
22383;DHT22;11359;45.802;13.530;2022-08-19T05:16:15;23.50;65.30
22383;DHT22;11359;45.802;13.530;2022-08-19T05:18:41;23.50;65.40
22383;DHT22;11359;45.802;13.530;2022-08-19T05:21:26;23.50;65.20
22383;DHT22;11359;45.802;13.530;2022-08-19T05:24:11;23.50;65.20
22383;DHT22;11359;45.802;13.530;2022-08-19T05:26:42;23.50;65.20
22383;DHT22;11359;45.802;13.530;2022-08-19T05:29:09;23.50;65.20
22383;DHT22;11359;45.802;13.530;2022-08-19T05:31:36;23.50;65.10
22383;DHT22;11359;45.802;13.530;2022-08-19T05:34:04;23.50;65.20
22383;DHT22;11359;45.802;13.530;2022-08-19T05:36:35;23.50;66.00
22383;DHT22;11359;45.802;13.530;2022-08-19T05:39:02;23.60;65.20
22383;DHT22;11359;45.802;13.530;2022-08-19T05:41:28;23.60;65.00
22383;DHT22;11359;45.802;13.530;2022-08-19T05:44:03;23.60;64.80
22383;DHT22;11359;45.802;13.530;2022-08-19T05:46:31;23.60;64.70
22383;DHT22;11359;45.802;13.530;2022-08-19T05:48:57;23.60;64.60
22383;DHT22;11359;45.802;13.530;2022-08-19T05:51:24;23.60;64.60
22383;DHT22;11359;45.802;13.530;2022-08-19T05:53:50;23.70;64.70
22383;DHT22;11359;45.802;13.530;2022-08-19T05:56:16;23.60;64.60
22383;DHT22;11359;45.802;13.530;2022-08-19T05:58:44;23.60;64.60
22383;DHT22;11359;45.802;13.530;2022-08-19T06:01:16;23.60;64.50
22383;DHT22;11359;45.802;13.530;2022-08-19T06:03:44;23.60;64.40
22383;DHT22;11359;45.802;13.530;2022-08-19T06:06:11;23.70;64.40
22383;DHT22;11359;45.802;13.530;2022-08-19T06:08:38;23.60;64.40
22383;DHT22;11359;45.802;13.530;2022-08-19T06:11:31;23.70;64.40
22383;DHT22;11359;45.802;13.530;2022-08-19T06:14:03;23.70;64.40
22383;DHT22;11359;45.802;13.530;2022-08-19T06:16:30;23.70;64.50
22383;DHT22;11359;45.802;13.530;2022-08-19T06:18:59;23.70;64.40
22383;DHT22;11359;45.802;13.530;2022-08-19T06:21:28;23.70;64.20
22383;DHT22;11359;45.802;13.530;2022-08-19T06:23:55;23.70;64.10
22383;DHT22;11359;45.802;13.530;2022-08-19T06:26:21;23.70;64.00
22383;DHT22;11359;45.802;13.530;2022-08-19T06:28:48;23.60;64.10
22383;DHT22;11359;45.802;13.530;2022-08-19T06:31:15;23.60;64.30
22383;DHT22;11359;45.802;13.530;2022-08-19T06:33:44;23.60;64.40
22383;DHT22;11359;45.802;13.530;2022-08-19T06:36:21;23.70;64.60
22383;DHT22;11359;45.802;13.530;2022-08-19T06:38:49;23.70;64.50
22383;DHT22;11359;45.802;13.530;2022-08-19T06:41:14;23.70;64.40
22383;DHT22;11359;45.802;13.530;2022-08-19T06:43:40;23.70;64.30
22383;DHT22;11359;45.802;13.530;2022-08-19T06:46:13;23.80;64.20
22383;DHT22;11359;45.802;13.530;2022-08-19T06:48:39;23.80;64.10
22383;DHT22;11359;45.802;13.530;2022-08-19T06:51:04;23.80;64.00
22383;DHT22;11359;45.802;13.530;2022-08-19T06:53:31;23.80;63.90
22383;DHT22;11359;45.802;13.530;2022-08-19T06:55:57;23.80;64.00
22383;DHT22;11359;45.802;13.530;2022-08-19T06:58:30;23.90;64.10
22383;DHT22;11359;45.802;13.530;2022-08-19T07:01:02;23.90;64.00
22383;DHT22;11359;45.802;13.530;2022-08-19T07:03:33;23.90;63.70
22383;DHT22;11359;45.802;13.530;2022-08-19T07:06:12;23.90;63.60
22383;DHT22;11359;45.802;13.530;2022-08-19T07:08:38;23.90;63.60
22383;DHT22;11359;45.802;13.530;2022-08-19T07:11:09;24.00;63.70
22383;DHT22;11359;45.802;13.530;2022-08-19T07:13:37;24.00;63.60
22383;DHT22;11359;45.802;13.530;2022-08-19T07:16:05;24.00;63.40
22383;DHT22;11359;45.802;13.530;2022-08-19T07:18:31;24.00;63.30
22383;DHT22;11359;45.802;13.530;2022-08-19T07:21:10;24.10;63.30
22383;DHT22;11359;45.802;13.530;2022-08-19T07:23:36;24.10;63.30
22383;DHT22;11359;45.802;13.530;2022-08-19T07:26:07;24.10;63.40
22383;DHT22;11359;45.802;13.530;2022-08-19T07:28:34;24.10;63.40
22383;DHT22;11359;45.802;13.530;2022-08-19T07:31:00;24.10;63.30
22383;DHT22;11359;45.802;13.530;2022-08-19T07:33:27;24.10;64.00
22383;DHT22;11359;45.802;13.530;2022-08-19T07:35:55;24.20;63.20
22383;DHT22;11359;45.802;13.530;2022-08-19T07:38:21;24.20;63.10
22383;DHT22;11359;45.802;13.530;2022-08-19T07:40:46;24.20;63.00
22383;DHT22;11359;45.802;13.530;2022-08-19T07:43:12;24.20;63.00
22383;DHT22;11359;45.802;13.530;2022-08-19T07:45:38;24.20;63.20
22383;DHT22;11359;45.802;13.530;2022-08-19T07:48:04;24.30;63.20
22383;DHT22;11359;45.802;13.530;2022-08-19T07:50:30;24.30;63.10
22383;DHT22;11359;45.802;13.530;2022-08-19T07:52:55;24.30;63.00
22383;DHT22;11359;45.802;13.530;2022-08-19T07:55:24;24.30;62.90
22383;DHT22;11359;45.802;13.530;2022-08-19T07:57:50;24.30;63.00
22383;DHT22;11359;45.802;13.530;2022-08-19T08:00:18;24.40;63.10
22383;DHT22;11359;45.802;13.530;2022-08-19T08:02:43;24.40;63.10
22383;DHT22;11359;45.802;13.530;2022-08-19T08:05:10;24.50;63.10
22383;DHT22;11359;45.802;13.530;2022-08-19T08:07:54;24.50;63.10
22383;DHT22;11359;45.802;13.530;2022-08-19T08:10:38;24.60;63.10
22383;DHT22;11359;45.802;13.530;2022-08-19T08:13:04;24.60;63.00
22383;DHT22;11359;45.802;13.530;2022-08-19T08:15:31;24.60;62.80
22383;DHT22;11359;45.802;13.530;2022-08-19T08:17:56;24.60;62.70
22383;DHT22;11359;45.802;13.530;2022-08-19T08:20:23;24.60;62.50
22383;DHT22;11359;45.802;13.530;2022-08-19T08:22:49;24.60;62.40
22383;DHT22;11359;45.802;13.530;2022-08-19T08:25:34;24.60;62.30
22383;DHT22;11359;45.802;13.530;2022-08-19T08:28:01;24.70;62.30
22383;DHT22;11359;45.802;13.530;2022-08-19T08:30:29;24.60;62.20
22383;DHT22;11359;45.802;13.530;2022-08-19T08:32:55;24.70;62.20
22383;DHT22;11359;45.802;13.530;2022-08-19T08:35:22;24.60;62.10
22383;DHT22;11359;45.802;13.530;2022-08-19T08:37:50;24.60;62.20
22383;DHT22;11359;45.802;13.530;2022-08-19T08:41:09;24.60;62.10
22383;DHT22;11359;45.802;13.530;2022-08-19T08:43:35;24.60;62.20
22383;DHT22;11359;45.802;13.530;2022-08-19T08:48:41;24.60;62.10
22383;DHT22;11359;45.802;13.530;2022-08-19T08:51:11;24.60;62.20
22383;DHT22;11359;45.802;13.530;2022-08-19T08:53:38;24.60;62.30
22383;DHT22;11359;45.802;13.530;2022-08-19T08:56:07;24.60;62.50
22383;DHT22;11359;45.802;13.530;2022-08-19T08:58:59;24.60;62.50
22383;DHT22;11359;45.802;13.530;2022-08-19T09:01:26;24.60;62.60
22383;DHT22;11359;45.802;13.530;2022-08-19T09:03:53;24.60;62.60
22383;DHT22;11359;45.802;13.530;2022-08-19T09:09:15;24.60;63.10
22383;DHT22;11359;45.802;13.530;2022-08-19T09:15:08;24.70;63.50
22383;DHT22;11359;45.802;13.530;2022-08-19T09:17:35;24.70;63.60
22383;DHT22;11359;45.802;13.530;2022-08-19T09:20:04;24.80;63.80
22383;DHT22;11359;45.802;13.530;2022-08-19T09:22:34;24.80;63.90
22383;DHT22;11359;45.802;13.530;2022-08-19T09:25:01;24.80;63.90
22383;DHT22;11359;45.802;13.530;2022-08-19T09:27:27;24.90;64.00
22383;DHT22;11359;45.802;13.530;2022-08-19T09:29:54;24.90;64.00
22383;DHT22;11359;45.802;13.530;2022-08-19T09:32:21;24.90;64.00
22383;DHT22;11359;45.802;13.530;2022-08-19T09:34:47;25.00;64.20
22383;DHT22;11359;45.802;13.530;2022-08-19T09:37:13;25.00;64.20
22383;DHT22;11359;45.802;13.530;2022-08-19T09:39:40;25.10;64.20
22383;DHT22;11359;45.802;13.530;2022-08-19T09:42:09;25.10;64.10
22383;DHT22;11359;45.802;13.530;2022-08-19T09:44:38;25.20;64.10
22383;DHT22;11359;45.802;13.530;2022-08-19T09:47:04;25.20;64.10
22383;DHT22;11359;45.802;13.530;2022-08-19T09:49:30;25.30;64.40
22383;DHT22;11359;45.802;13.530;2022-08-19T09:51:57;25.30;64.50
22383;DHT22;11359;45.802;13.530;2022-08-19T09:54:23;25.40;64.60
22383;DHT22;11359;45.802;13.530;2022-08-19T09:56:49;25.50;64.70
22383;DHT22;11359;45.802;13.530;2022-08-19T09:59:15;25.50;64.60
22383;DHT22;11359;45.802;13.530;2022-08-19T10:01:41;25.60;64.60
22383;DHT22;11359;45.802;13.530;2022-08-19T10:04:07;25.70;64.50
22383;DHT22;11359;45.802;13.530;2022-08-19T10:06:37;25.70;64.40
22383;DHT22;11359;45.802;13.530;2022-08-19T10:09:07;25.80;64.40
22383;DHT22;11359;45.802;13.530;2022-08-19T10:11:35;25.90;64.50
22383;DHT22;11359;45.802;13.530;2022-08-19T10:14:03;26.00;64.60
22383;DHT22;11359;45.802;13.530;2022-08-19T10:16:31;26.10;64.60
22383;DHT22;11359;45.802;13.530;2022-08-19T10:18:58;26.10;64.50
22383;DHT22;11359;45.802;13.530;2022-08-19T10:21:30;26.20;64.40
22383;DHT22;11359;45.802;13.530;2022-08-19T10:23:59;26.30;64.30
22383;DHT22;11359;45.802;13.530;2022-08-19T10:26:27;26.30;64.00
22383;DHT22;11359;45.802;13.530;2022-08-19T10:28:54;26.40;63.80
22383;DHT22;11359;45.802;13.530;2022-08-19T10:31:22;26.40;63.60
22383;DHT22;11359;45.802;13.530;2022-08-19T10:33:50;26.50;63.60
22383;DHT22;11359;45.802;13.530;2022-08-19T10:36:20;26.50;63.50
22383;DHT22;11359;45.802;13.530;2022-08-19T10:38:50;26.50;63.40
22383;DHT22;11359;45.802;13.530;2022-08-19T10:41:17;26.50;63.20
22383;DHT22;11359;45.802;13.530;2022-08-19T10:43:44;26.50;63.00
22383;DHT22;11359;45.802;13.530;2022-08-19T10:46:12;26.50;62.80
22383;DHT22;11359;45.802;13.530;2022-08-19T10:48:38;26.50;62.70
22383;DHT22;11359;45.802;13.530;2022-08-19T10:51:04;26.50;62.70
22383;DHT22;11359;45.802;13.530;2022-08-19T10:53:49;26.40;62.60
22383;DHT22;11359;45.802;13.530;2022-08-19T10:56:16;26.50;62.70
22383;DHT22;11359;45.802;13.530;2022-08-19T10:59:01;26.40;62.50
22383;DHT22;11359;45.802;13.530;2022-08-19T11:01:29;26.40;62.40
22383;DHT22;11359;45.802;13.530;2022-08-19T11:03:56;26.40;62.40
22383;DHT22;11359;45.802;13.530;2022-08-19T11:06:23;26.40;62.40
22383;DHT22;11359;45.802;13.530;2022-08-19T11:08:53;26.30;62.30
22383;DHT22;11359;45.802;13.530;2022-08-19T11:11:20;26.40;62.40
22383;DHT22;11359;45.802;13.530;2022-08-19T11:13:47;26.40;62.60
22383;DHT22;11359;45.802;13.530;2022-08-19T11:16:18;26.40;62.80
22383;DHT22;11359;45.802;13.530;2022-08-19T11:18:47;26.40;62.90
22383;DHT22;11359;45.802;13.530;2022-08-19T11:23:39;26.50;63.00
22383;DHT22;11359;45.802;13.530;2022-08-19T11:26:06;26.50;62.90
22383;DHT22;11359;45.802;13.530;2022-08-19T11:28:32;26.50;62.90
22383;DHT22;11359;45.802;13.530;2022-08-19T11:30:57;26.60;63.00
22383;DHT22;11359;45.802;13.530;2022-08-19T11:33:23;26.60;62.90
22383;DHT22;11359;45.802;13.530;2022-08-19T11:35:52;26.60;63.00
22383;DHT22;11359;45.802;13.530;2022-08-19T11:38:18;26.70;63.10
22383;DHT22;11359;45.802;13.530;2022-08-19T11:40:45;26.80;63.40
22383;DHT22;11359;45.802;13.530;2022-08-19T11:43:10;26.90;63.50
22383;DHT22;11359;45.802;13.530;2022-08-19T11:45:36;26.90;63.50
22383;DHT22;11359;45.802;13.530;2022-08-19T11:48:02;27.00;63.40
22383;DHT22;11359;45.802;13.530;2022-08-19T11:50:28;27.10;63.20
22383;DHT22;11359;45.802;13.530;2022-08-19T11:52:56;27.10;63.00
22383;DHT22;11359;45.802;13.530;2022-08-19T11:55:22;27.20;62.90
22383;DHT22;11359;45.802;13.530;2022-08-19T11:57:48;27.20;62.70
22383;DHT22;11359;45.802;13.530;2022-08-19T12:00:17;27.30;62.70
22383;DHT22;11359;45.802;13.530;2022-08-19T12:02:43;27.30;62.50
22383;DHT22;11359;45.802;13.530;2022-08-19T12:05:09;27.40;62.40
22383;DHT22;11359;45.802;13.530;2022-08-19T12:07:35;27.30;62.20
22383;DHT22;11359;45.802;13.530;2022-08-19T12:10:00;27.40;62.10
22383;DHT22;11359;45.802;13.530;2022-08-19T12:12:27;27.40;62.10
22383;DHT22;11359;45.802;13.530;2022-08-19T12:14:53;27.40;62.00
22383;DHT22;11359;45.802;13.530;2022-08-19T12:17:26;27.40;61.90
22383;DHT22;11359;45.802;13.530;2022-08-19T12:19:53;27.50;62.00
22383;DHT22;11359;45.802;13.530;2022-08-19T12:22:18;27.50;61.90
22383;DHT22;11359;45.802;13.530;2022-08-19T12:24:45;27.50;62.00
22383;DHT22;11359;45.802;13.530;2022-08-19T12:27:11;27.50;62.10
22383;DHT22;11359;45.802;13.530;2022-08-19T12:29:36;27.60;62.30
22383;DHT22;11359;45.802;13.530;2022-08-19T12:32:02;27.70;62.30
22383;DHT22;11359;45.802;13.530;2022-08-19T12:34:30;27.80;62.30
22383;DHT22;11359;45.802;13.530;2022-08-19T12:36:58;27.80;62.20
22383;DHT22;11359;45.802;13.530;2022-08-19T12:39:24;27.90;62.00
22383;DHT22;11359;45.802;13.530;2022-08-19T12:41:50;27.90;61.80
22383;DHT22;11359;45.802;13.530;2022-08-19T12:44:17;28.00;61.60
22383;DHT22;11359;45.802;13.530;2022-08-19T12:46:42;28.00;61.40
22383;DHT22;11359;45.802;13.530;2022-08-19T12:49:08;28.00;61.20
22383;DHT22;11359;45.802;13.530;2022-08-19T12:51:34;28.00;61.10
22383;DHT22;11359;45.802;13.530;2022-08-19T12:53:59;28.10;61.90
22383;DHT22;11359;45.802;13.530;2022-08-19T12:56:26;28.10;60.90
22383;DHT22;11359;45.802;13.530;2022-08-19T12:58:52;28.10;60.90
22383;DHT22;11359;45.802;13.530;2022-08-19T13:01:18;28.20;60.80
22383;DHT22;11359;45.802;13.530;2022-08-19T13:03:45;28.20;60.60
22383;DHT22;11359;45.802;13.530;2022-08-19T13:06:12;28.30;60.70
22383;DHT22;11359;45.802;13.530;2022-08-19T13:08:38;28.30;60.70
22383;DHT22;11359;45.802;13.530;2022-08-19T13:11:11;28.40;60.80
22383;DHT22;11359;45.802;13.530;2022-08-19T13:13:41;28.50;60.90
22383;DHT22;11359;45.802;13.530;2022-08-19T13:16:11;28.60;60.90
22383;DHT22;11359;45.802;13.530;2022-08-19T13:18:38;28.70;61.00
22383;DHT22;11359;45.802;13.530;2022-08-19T13:21:06;28.80;61.00
22383;DHT22;11359;45.802;13.530;2022-08-19T13:23:34;28.90;61.00
22383;DHT22;11359;45.802;13.530;2022-08-19T13:26:05;29.10;61.10
22383;DHT22;11359;45.802;13.530;2022-08-19T13:28:32;29.20;61.10
22383;DHT22;11359;45.802;13.530;2022-08-19T13:31:20;29.40;61.00
22383;DHT22;11359;45.802;13.530;2022-08-19T13:34:05;29.50;60.80
22383;DHT22;11359;45.802;13.530;2022-08-19T13:36:35;29.70;60.90
22383;DHT22;11359;45.802;13.530;2022-08-19T13:39:01;29.80;60.90
22383;DHT22;11359;45.802;13.530;2022-08-19T13:41:27;30.00;60.90
22383;DHT22;11359;45.802;13.530;2022-08-19T13:43:53;30.20;60.90
22383;DHT22;11359;45.802;13.530;2022-08-19T13:46:20;30.40;60.70
22383;DHT22;11359;45.802;13.530;2022-08-19T13:48:46;30.60;60.50
22383;DHT22;11359;45.802;13.530;2022-08-19T13:51:14;30.90;60.40
22383;DHT22;11359;45.802;13.530;2022-08-19T13:53:42;31.10;60.20
22383;DHT22;11359;45.802;13.530;2022-08-19T13:56:12;31.20;59.90
22383;DHT22;11359;45.802;13.530;2022-08-19T13:58:38;31.50;59.70
22383;DHT22;11359;45.802;13.530;2022-08-19T14:01:05;31.60;59.30
22383;DHT22;11359;45.802;13.530;2022-08-19T14:03:32;31.80;59.10
22383;DHT22;11359;45.802;13.530;2022-08-19T14:05:58;32.00;58.90
22383;DHT22;11359;45.802;13.530;2022-08-19T14:08:25;32.10;58.50
22383;DHT22;11359;45.802;13.530;2022-08-19T14:10:54;32.30;58.30
22383;DHT22;11359;45.802;13.530;2022-08-19T14:13:21;32.40;57.90
22383;DHT22;11359;45.802;13.530;2022-08-19T14:15:48;32.50;57.50
22383;DHT22;11359;45.802;13.530;2022-08-19T14:18:15;32.60;57.90
22383;DHT22;11359;45.802;13.530;2022-08-19T14:20:41;32.80;57.20
22383;DHT22;11359;45.802;13.530;2022-08-19T14:23:07;32.90;57.10
22383;DHT22;11359;45.802;13.530;2022-08-19T14:25:33;33.10;56.90
22383;DHT22;11359;45.802;13.530;2022-08-19T14:28:00;33.20;56.70
22383;DHT22;11359;45.802;13.530;2022-08-19T14:30:31;33.40;56.50
22383;DHT22;11359;45.802;13.530;2022-08-19T14:32:58;33.60;56.30
22383;DHT22;11359;45.802;13.530;2022-08-19T14:35:29;33.80;55.90
22383;DHT22;11359;45.802;13.530;2022-08-19T14:37:55;33.90;55.50
22383;DHT22;11359;45.802;13.530;2022-08-19T14:40:25;34.10;55.20
22383;DHT22;11359;45.802;13.530;2022-08-19T14:42:56;34.30;55.10
22383;DHT22;11359;45.802;13.530;2022-08-19T14:45:25;34.50;54.90
22383;DHT22;11359;45.802;13.530;2022-08-19T14:47:52;34.70;54.60
22383;DHT22;11359;45.802;13.530;2022-08-19T14:50:18;34.90;54.00
22383;DHT22;11359;45.802;13.530;2022-08-19T14:52:44;35.00;53.20
22383;DHT22;11359;45.802;13.530;2022-08-19T14:55:10;35.10;51.90
22383;DHT22;11359;45.802;13.530;2022-08-19T14:57:36;35.30;51.30
22383;DHT22;11359;45.802;13.530;2022-08-19T15:00:03;35.40;51.40
22383;DHT22;11359;45.802;13.530;2022-08-19T15:02:29;35.40;51.30
22383;DHT22;11359;45.802;13.530;2022-08-19T15:04:55;35.50;50.60
22383;DHT22;11359;45.802;13.530;2022-08-19T15:07:21;35.60;50.40
22383;DHT22;11359;45.802;13.530;2022-08-19T15:09:49;35.70;50.70
22383;DHT22;11359;45.802;13.530;2022-08-19T15:12:16;35.90;50.80
22383;DHT22;11359;45.802;13.530;2022-08-19T15:14:42;36.00;50.90
22383;DHT22;11359;45.802;13.530;2022-08-19T15:17:09;36.10;50.40
22383;DHT22;11359;45.802;13.530;2022-08-19T15:19:35;36.30;50.00
22383;DHT22;11359;45.802;13.530;2022-08-19T15:22:01;36.40;49.60
22383;DHT22;11359;45.802;13.530;2022-08-19T15:24:27;36.40;49.20
22383;DHT22;11359;45.802;13.530;2022-08-19T15:26:53;36.50;48.80
22383;DHT22;11359;45.802;13.530;2022-08-19T15:29:21;36.60;48.60
22383;DHT22;11359;45.802;13.530;2022-08-19T15:31:51;36.70;48.20